Terminal Aerodrome Forecast
Issued by NWS

Home | Current Version | Previous Version | Text Only | Print | Product List | Glossary On
Versions: 1 2 3 4 5 6 7 8 9 10 11 12 13
000
FTUS43 KDMX 240520
TAFMCW
TAF
KMCW 240520Z 2406/2506 13014G20KT P6SM -RA SCT070 OVC090
     FM241100 12019G26KT 5SM TSRA BR SCT008 BKN010CB OVC020
     FM241500 15012G18KT 5SM -SHRA BR SCT008 OVC015
     FM241900 30014G22KT P6SM -SHRA SCT015 OVC025
     FM242300 33014KT P6SM SCT030 BKN250
     FM250300 33007KT P6SM SCT250=

USA.gov is the U.S. government's official web portal to all federal, state and local government web resources and services.